sensor_id;sensor_type;location;lat;lon;timestamp;pressure;altitude;pressure_sealevel;temperature;humidity
58239;BME280;44037;55.638;37.356;2023-08-07T00:01:56;99098.00;;;23.65;82.01
58239;BME280;44037;55.638;37.356;2023-08-07T00:04:23;99105.25;;;23.61;81.97
58239;BME280;44037;55.638;37.356;2023-08-07T00:06:50;99101.06;;;23.57;82.01
58239;BME280;44037;55.638;37.356;2023-08-07T00:09:19;99092.50;;;23.52;82.33
58239;BME280;44037;55.638;37.356;2023-08-07T00:11:46;99097.88;;;23.51;83.14
58239;BME280;44037;55.638;37.356;2023-08-07T00:14:13;99096.16;;;23.50;83.21
58239;BME280;44037;55.638;37.356;2023-08-07T00:16:41;99097.97;;;23.49;83.39
58239;BME280;44037;55.638;37.356;2023-08-07T00:19:08;99088.34;;;23.48;82.41
58239;BME280;44037;55.638;37.356;2023-08-07T00:21:35;99095.22;;;23.51;82.67
58239;BME280;44037;55.638;37.356;2023-08-07T00:24:03;99100.63;;;23.49;82.59
58239;BME280;44037;55.638;37.356;2023-08-07T00:26:32;99100.78;;;23.46;82.39
58239;BME280;44037;55.638;37.356;2023-08-07T00:28:59;99099.22;;;23.42;82.38
58239;BME280;44037;55.638;37.356;2023-08-07T00:31:26;99097.66;;;23.38;82.73
58239;BME280;44037;55.638;37.356;2023-08-07T00:33:56;99096.03;;;23.35;82.79
58239;BME280;44037;55.638;37.356;2023-08-07T00:36:23;99099.72;;;23.33;83.69
58239;BME280;44037;55.638;37.356;2023-08-07T00:38:51;99103.28;;;23.31;84.35
58239;BME280;44037;55.638;37.356;2023-08-07T00:41:18;99095.44;;;23.30;84.14
58239;BME280;44037;55.638;37.356;2023-08-07T00:43:46;99093.72;;;23.29;84.08
58239;BME280;44037;55.638;37.356;2023-08-07T00:46:14;99092.94;;;23.27;84.38
58239;BME280;44037;55.638;37.356;2023-08-07T00:48:41;99093.97;;;23.24;84.12
58239;BME280;44037;55.638;37.356;2023-08-07T00:51:08;99092.31;;;23.22;84.14
58239;BME280;44037;55.638;37.356;2023-08-07T00:53:37;99089.06;;;23.16;84.20
58239;BME280;44037;55.638;37.356;2023-08-07T00:56:05;99090.91;;;23.14;84.61
58239;BME280;44037;55.638;37.356;2023-08-07T00:58:33;99084.84;;;23.12;85.02
58239;BME280;44037;55.638;37.356;2023-08-07T01:01:02;99086.66;;;23.12;85.40
58239;BME280;44037;55.638;37.356;2023-08-07T01:03:29;99084.84;;;23.12;85.30
58239;BME280;44037;55.638;37.356;2023-08-07T01:05:56;99085.00;;;23.09;85.29
58239;BME280;44037;55.638;37.356;2023-08-07T01:08:23;99078.94;;;23.07;85.81
58239;BME280;44037;55.638;37.356;2023-08-07T01:11:01;99079.97;;;23.05;85.41
58239;BME280;44037;55.638;37.356;2023-08-07T01:13:37;99085.41;;;23.01;85.41
58239;BME280;44037;55.638;37.356;2023-08-07T01:16:14;99077.72;;;22.97;85.41
58239;BME280;44037;55.638;37.356;2023-08-07T01:18:45;99076.19;;;22.93;86.11
58239;BME280;44037;55.638;37.356;2023-08-07T01:21:17;99070.94;;;22.91;86.72
58239;BME280;44037;55.638;37.356;2023-08-07T01:23:46;99073.59;;;22.91;87.14
58239;BME280;44037;55.638;37.356;2023-08-07T01:26:13;99074.63;;;22.89;87.06
58239;BME280;44037;55.638;37.356;2023-08-07T01:28:44;99073.97;;;22.83;87.63
58239;BME280;44037;55.638;37.356;2023-08-07T01:31:14;99068.88;;;22.80;87.51
58239;BME280;44037;55.638;37.356;2023-08-07T01:33:47;99063.81;;;22.76;87.47
58239;BME280;44037;55.638;37.356;2023-08-07T01:36:16;99066.69;;;22.71;87.44
58239;BME280;44037;55.638;37.356;2023-08-07T01:38:43;99064.22;;;22.68;87.94
58239;BME280;44037;55.638;37.356;2023-08-07T01:41:12;99065.16;;;22.67;88.93
58239;BME280;44037;55.638;37.356;2023-08-07T01:43:40;99063.50;;;22.64;89.17
58239;BME280;44037;55.638;37.356;2023-08-07T01:46:07;99051.31;;;22.62;89.34
58239;BME280;44037;55.638;37.356;2023-08-07T01:48:34;99056.69;;;22.60;89.45
58239;BME280;44037;55.638;37.356;2023-08-07T01:51:01;99054.97;;;22.59;89.61
58239;BME280;44037;55.638;37.356;2023-08-07T01:53:28;99055.91;;;22.58;89.44
58239;BME280;44037;55.638;37.356;2023-08-07T01:55:55;99045.41;;;22.57;89.55
58239;BME280;44037;55.638;37.356;2023-08-07T01:58:24;99053.31;;;22.57;89.40
58239;BME280;44037;55.638;37.356;2023-08-07T02:00:51;99053.31;;;22.57;89.64
58239;BME280;44037;55.638;37.356;2023-08-07T02:03:18;99059.38;;;22.59;89.99
58239;BME280;44037;55.638;37.356;2023-08-07T02:05:45;99055.91;;;22.58;89.91
58239;BME280;44037;55.638;37.356;2023-08-07T02:08:13;99050.53;;;22.60;89.89
58239;BME280;44037;55.638;37.356;2023-08-07T02:10:41;99047.88;;;22.60;90.15
58239;BME280;44037;55.638;37.356;2023-08-07T02:13:08;99047.84;;;22.61;89.86
58239;BME280;44037;55.638;37.356;2023-08-07T02:15:36;99050.47;;;22.61;89.67
58239;BME280;44037;55.638;37.356;2023-08-07T02:18:04;99044.19;;;22.64;89.21
58239;BME280;44037;55.638;37.356;2023-08-07T02:20:31;99050.69;;;22.74;89.05
58239;BME280;44037;55.638;37.356;2023-08-07T02:22:58;99044.88;;;22.85;88.84
58239;BME280;44037;55.638;37.356;2023-08-07T02:25:25;99051.44;;;22.94;88.07
58239;BME280;44037;55.638;37.356;2023-08-07T02:27:52;99046.66;;;23.02;87.52
58239;BME280;44037;55.638;37.356;2023-08-07T02:30:19;99052.38;;;23.10;86.73
58239;BME280;44037;55.638;37.356;2023-08-07T02:32:48;99048.34;;;23.21;86.46
58239;BME280;44037;55.638;37.356;2023-08-07T02:35:15;99048.81;;;23.29;85.58
58239;BME280;44037;55.638;37.356;2023-08-07T02:37:42;99049.25;;;23.37;84.98
58239;BME280;44037;55.638;37.356;2023-08-07T02:40:10;99048.75;;;23.46;84.65
58239;BME280;44037;55.638;37.356;2023-08-07T02:42:40;99047.31;;;23.57;84.28
58239;BME280;44037;55.638;37.356;2023-08-07T02:45:08;99045.81;;;23.69;83.69
58239;BME280;44037;55.638;37.356;2023-08-07T02:47:36;99048.81;;;23.78;82.36
58239;BME280;44037;55.638;37.356;2023-08-07T02:50:05;99040.50;;;23.85;82.01
58239;BME280;44037;55.638;37.356;2023-08-07T02:52:32;99039.31;;;23.90;81.63
58239;BME280;44037;55.638;37.356;2023-08-07T02:54:59;99039.06;;;23.95;80.72
58239;BME280;44037;55.638;37.356;2023-08-07T02:57:26;99040.53;;;24.01;80.34
58239;BME280;44037;55.638;37.356;2023-08-07T02:59:53;99035.75;;;24.07;79.87
58239;BME280;44037;55.638;37.356;2023-08-07T03:02:20;99038.25;;;24.11;79.63
58239;BME280;44037;55.638;37.356;2023-08-07T03:04:47;99038.06;;;24.14;79.28
58239;BME280;44037;55.638;37.356;2023-08-07T03:07:15;99037.13;;;24.15;79.15
58239;BME280;44037;55.638;37.356;2023-08-07T03:09:45;99045.91;;;24.15;78.86
58239;BME280;44037;55.638;37.356;2023-08-07T03:12:12;99041.31;;;24.19;78.90
58239;BME280;44037;55.638;37.356;2023-08-07T03:14:39;99046.50;;;24.20;78.58
58239;BME280;44037;55.638;37.356;2023-08-07T03:17:06;99040.13;;;24.25;78.22
58239;BME280;44037;55.638;37.356;2023-08-07T03:19:33;99042.50;;;24.29;78.37
58239;BME280;44037;55.638;37.356;2023-08-07T03:22:00;99027.28;;;24.33;77.73
58239;BME280;44037;55.638;37.356;2023-08-07T03:24:29;99038.72;;;24.33;77.68
58239;BME280;44037;55.638;37.356;2023-08-07T03:26:56;99039.47;;;24.35;77.72
58239;BME280;44037;55.638;37.356;2023-08-07T03:29:23;99037.59;;;24.37;76.90
58239;BME280;44037;55.638;37.356;2023-08-07T03:31:50;99023.44;;;24.38;76.75
58239;BME280;44037;55.638;37.356;2023-08-07T03:34:17;99029.41;;;24.42;76.36
58239;BME280;44037;55.638;37.356;2023-08-07T03:36:45;99026.19;;;24.51;75.89
58239;BME280;44037;55.638;37.356;2023-08-07T03:39:12;99031.16;;;24.58;75.31
58239;BME280;44037;55.638;37.356;2023-08-07T03:41:40;99038.56;;;24.67;75.21
58239;BME280;44037;55.638;37.356;2023-08-07T03:44:07;99039.66;;;24.79;75.17
58239;BME280;44037;55.638;37.356;2023-08-07T03:46:34;99034.69;;;24.89;74.74
58239;BME280;44037;55.638;37.356;2023-08-07T03:49:01;99032.31;;;24.98;73.86
58239;BME280;44037;55.638;37.356;2023-08-07T03:51:28;99032.78;;;25.05;72.87
58239;BME280;44037;55.638;37.356;2023-08-07T03:53:57;99025.97;;;25.15;71.98
58239;BME280;44037;55.638;37.356;2023-08-07T03:56:24;99030.81;;;25.23;71.83
58239;BME280;44037;55.638;37.356;2023-08-07T03:58:53;99030.44;;;25.29;71.28
58239;BME280;44037;55.638;37.356;2023-08-07T04:01:20;99040.59;;;25.37;70.79
58239;BME280;44037;55.638;37.356;2023-08-07T04:03:47;99034.41;;;25.37;70.48
58239;BME280;44037;55.638;37.356;2023-08-07T04:06:14;99033.13;;;25.44;70.40
58239;BME280;44037;55.638;37.356;2023-08-07T04:08:42;99036.16;;;25.52;69.97
58239;BME280;44037;55.638;37.356;2023-08-07T04:11:09;99036.03;;;25.54;69.90
58239;BME280;44037;55.638;37.356;2023-08-07T04:13:36;99026.97;;;25.58;69.56
58239;BME280;44037;55.638;37.356;2023-08-07T04:16:05;99030.91;;;25.65;68.77
58239;BME280;44037;55.638;37.356;2023-08-07T04:18:33;99033.19;;;25.71;69.10
58239;BME280;44037;55.638;37.356;2023-08-07T04:21:00;99022.19;;;25.77;68.15
58239;BME280;44037;55.638;37.356;2023-08-07T04:23:27;99021.03;;;25.82;67.70
58239;BME280;44037;55.638;37.356;2023-08-07T04:25:54;99023.31;;;25.88;68.21
58239;BME280;44037;55.638;37.356;2023-08-07T04:28:21;99022.72;;;25.97;68.01
58239;BME280;44037;55.638;37.356;2023-08-07T04:30:50;99023.06;;;26.05;67.34
58239;BME280;44037;55.638;37.356;2023-08-07T04:33:19;99022.41;;;26.16;66.75
58239;BME280;44037;55.638;37.356;2023-08-07T04:35:46;99020.50;;;26.18;66.01
58239;BME280;44037;55.638;37.356;2023-08-07T04:38:14;99017.94;;;26.17;65.79
58239;BME280;44037;55.638;37.356;2023-08-07T04:40:44;99008.19;;;26.17;65.74
58239;BME280;44037;55.638;37.356;2023-08-07T04:43:12;99008.19;;;26.17;65.77
58239;BME280;44037;55.638;37.356;2023-08-07T04:45:40;99017.09;;;26.16;64.82
58239;BME280;44037;55.638;37.356;2023-08-07T04:48:07;99009.13;;;26.16;65.35
58239;BME280;44037;55.638;37.356;2023-08-07T04:50:36;99011.78;;;26.16;65.72
58239;BME280;44037;55.638;37.356;2023-08-07T04:53:03;99009.88;;;26.18;64.76
58239;BME280;44037;55.638;37.356;2023-08-07T04:55:30;99007.00;;;26.21;64.40
58239;BME280;44037;55.638;37.356;2023-08-07T04:57:57;99015.84;;;26.22;64.56
58239;BME280;44037;55.638;37.356;2023-08-07T05:00:25;99005.03;;;26.25;64.46
58239;BME280;44037;55.638;37.356;2023-08-07T05:02:52;99009.28;;;26.28;63.64
58239;BME280;44037;55.638;37.356;2023-08-07T05:05:19;99008.00;;;26.33;64.39
58239;BME280;44037;55.638;37.356;2023-08-07T05:07:48;99006.75;;;26.39;64.27
58239;BME280;44037;55.638;37.356;2023-08-07T05:10:15;99008.44;;;26.40;63.98
58239;BME280;44037;55.638;37.356;2023-08-07T05:12:42;99012.81;;;26.41;64.09
58239;BME280;44037;55.638;37.356;2023-08-07T05:15:10;99012.81;;;26.41;63.51
58239;BME280;44037;55.638;37.356;2023-08-07T05:17:37;99002.00;;;26.44;63.92
58239;BME280;44037;55.638;37.356;2023-08-07T05:20:05;99008.69;;;26.50;63.20
58239;BME280;44037;55.638;37.356;2023-08-07T05:22:32;99004.03;;;26.53;61.91
58239;BME280;44037;55.638;37.356;2023-08-07T05:25:01;98998.41;;;26.58;61.70
58239;BME280;44037;55.638;37.356;2023-08-07T05:27:29;98995.44;;;26.63;61.56
58239;BME280;44037;55.638;37.356;2023-08-07T05:29:56;98993.41;;;26.66;60.93
58239;BME280;44037;55.638;37.356;2023-08-07T05:32:23;98998.72;;;26.66;61.15
58239;BME280;44037;55.638;37.356;2023-08-07T05:34:50;98980.03;;;26.68;60.49
58239;BME280;44037;55.638;37.356;2023-08-07T05:37:17;98990.47;;;26.71;60.58
58239;BME280;44037;55.638;37.356;2023-08-07T05:39:45;98983.88;;;26.77;60.02
58239;BME280;44037;55.638;37.356;2023-08-07T05:42:13;98982.63;;;26.82;60.43
58239;BME280;44037;55.638;37.356;2023-08-07T05:44:40;98979.53;;;26.89;60.78
58239;BME280;44037;55.638;37.356;2023-08-07T05:47:07;98981.78;;;26.95;60.39
58239;BME280;44037;55.638;37.356;2023-08-07T05:49:34;98976.22;;;26.98;60.23
58239;BME280;44037;55.638;37.356;2023-08-07T05:52:01;98971.78;;;26.98;59.83
58239;BME280;44037;55.638;37.356;2023-08-07T05:54:28;98964.75;;;26.97;60.04
58239;BME280;44037;55.638;37.356;2023-08-07T05:56:55;98962.94;;;26.98;59.55
58239;BME280;44037;55.638;37.356;2023-08-07T05:59:24;98970.72;;;27.01;58.78
58239;BME280;44037;55.638;37.356;2023-08-07T06:01:51;98961.78;;;27.02;58.71
58239;BME280;44037;55.638;37.356;2023-08-07T06:04:18;98976.78;;;27.03;59.52
58239;BME280;44037;55.638;37.356;2023-08-07T06:06:46;98962.22;;;26.96;59.21
58239;BME280;44037;55.638;37.356;2023-08-07T06:09:13;98968.81;;;26.90;59.13
58239;BME280;44037;55.638;37.356;2023-08-07T06:11:41;98954.88;;;26.87;59.63
58239;BME280;44037;55.638;37.356;2023-08-07T06:14:08;98967.94;;;26.90;58.94
58239;BME280;44037;55.638;37.356;2023-08-07T06:16:37;98950.94;;;26.92;60.21
58239;BME280;44037;55.638;37.356;2023-08-07T06:19:04;98962.22;;;26.96;59.01
58239;BME280;44037;55.638;37.356;2023-08-07T06:21:31;98960.00;;;27.03;58.91
58239;BME280;44037;55.638;37.356;2023-08-07T06:23:58;98965.94;;;27.06;57.68
58239;BME280;44037;55.638;37.356;2023-08-07T06:26:25;98957.22;;;27.04;58.11
58239;BME280;44037;55.638;37.356;2023-08-07T06:28:52;98959.66;;;27.07;57.88
58239;BME280;44037;55.638;37.356;2023-08-07T06:31:19;98970.19;;;27.09;57.87
58239;BME280;44037;55.638;37.356;2023-08-07T06:33:49;98963.91;;;27.10;57.69
58239;BME280;44037;55.638;37.356;2023-08-07T06:36:16;98963.78;;;27.11;57.99
58239;BME280;44037;55.638;37.356;2023-08-07T06:38:43;98956.88;;;27.09;57.24
58239;BME280;44037;55.638;37.356;2023-08-07T06:41:10;98956.25;;;27.05;56.78
58239;BME280;44037;55.638;37.356;2023-08-07T06:43:37;98973.47;;;27.12;56.89
58239;BME280;44037;55.638;37.356;2023-08-07T06:46:04;98957.94;;;27.19;56.06
58239;BME280;44037;55.638;37.356;2023-08-07T06:48:32;98959.53;;;27.22;56.76
58239;BME280;44037;55.638;37.356;2023-08-07T06:51:00;98957.59;;;27.24;56.71
58239;BME280;44037;55.638;37.356;2023-08-07T06:53:27;98953.03;;;27.26;55.93
58239;BME280;44037;55.638;37.356;2023-08-07T06:55:54;98953.91;;;27.26;55.22
58239;BME280;44037;55.638;37.356;2023-08-07T06:58:21;98955.47;;;27.29;55.98
58239;BME280;44037;55.638;37.356;2023-08-07T07:00:48;98939.31;;;27.32;56.00
58239;BME280;44037;55.638;37.356;2023-08-07T07:03:15;98949.94;;;27.32;55.50
58239;BME280;44037;55.638;37.356;2023-08-07T07:05:42;98946.94;;;27.37;55.53
58239;BME280;44037;55.638;37.356;2023-08-07T07:08:11;98947.56;;;27.40;55.23
58239;BME280;44037;55.638;37.356;2023-08-07T07:10:38;98931.50;;;27.42;54.73
58239;BME280;44037;55.638;37.356;2023-08-07T07:13:05;98936.72;;;27.43;54.62
58239;BME280;44037;55.638;37.356;2023-08-07T07:15:33;98941.00;;;27.46;55.27
58239;BME280;44037;55.638;37.356;2023-08-07T07:18:01;98942.56;;;27.49;55.11
58239;BME280;44037;55.638;37.356;2023-08-07T07:20:28;98938.00;;;27.51;55.70
58239;BME280;44037;55.638;37.356;2023-08-07T07:22:55;98935.13;;;27.54;56.47
58239;BME280;44037;55.638;37.356;2023-08-07T07:25:24;98930.34;;;27.59;56.72
58239;BME280;44037;55.638;37.356;2023-08-07T07:27:51;98926.81;;;27.58;55.16
58239;BME280;44037;55.638;37.356;2023-08-07T07:30:18;98931.28;;;27.58;54.96
58239;BME280;44037;55.638;37.356;2023-08-07T07:32:46;98922.56;;;27.56;54.84
58239;BME280;44037;55.638;37.356;2023-08-07T07:35:13;98922.44;;;27.57;54.84
58239;BME280;44037;55.638;37.356;2023-08-07T07:37:40;98925.09;;;27.57;54.09
58239;BME280;44037;55.638;37.356;2023-08-07T07:40:08;98928.50;;;27.59;54.17
58239;BME280;44037;55.638;37.356;2023-08-07T07:42:37;98923.94;;;27.62;54.51
58239;BME280;44037;55.638;37.356;2023-08-07T07:45:05;98926.38;;;27.65;54.38
58239;BME280;44037;55.638;37.356;2023-08-07T07:47:32;98929.88;;;27.65;55.00
58239;BME280;44037;55.638;37.356;2023-08-07T07:50:06;98914.66;;;27.67;53.81
58239;BME280;44037;55.638;37.356;2023-08-07T07:52:34;98916.34;;;27.68;53.32
58239;BME280;44037;55.638;37.356;2023-08-07T07:55:01;98922.28;;;27.72;53.77
58239;BME280;44037;55.638;37.356;2023-08-07T07:57:28;98897.81;;;27.67;53.16
58239;BME280;44037;55.638;37.356;2023-08-07T07:59:57;98917.88;;;27.59;53.57
58239;BME280;44037;55.638;37.356;2023-08-07T08:02:24;98912.03;;;27.54;53.92
58239;BME280;44037;55.638;37.356;2023-08-07T08:04:51;98910.72;;;27.60;53.99
58239;BME280;44037;55.638;37.356;2023-08-07T08:07:18;98896.97;;;27.66;52.80
58239;BME280;44037;55.638;37.356;2023-08-07T08:09:45;98913.13;;;27.76;53.46
58239;BME280;44037;55.638;37.356;2023-08-07T08:12:12;98908.19;;;27.83;52.95
58239;BME280;44037;55.638;37.356;2023-08-07T08:14:39;98911.34;;;27.88;53.00
58239;BME280;44037;55.638;37.356;2023-08-07T08:17:08;98911.13;;;27.91;53.12
58239;BME280;44037;55.638;37.356;2023-08-07T08:19:35;98901.31;;;27.92;53.26
58239;BME280;44037;55.638;37.356;2023-08-07T08:22:02;98902.41;;;27.89;52.46
58239;BME280;44037;55.638;37.356;2023-08-07T08:24:29;98899.47;;;27.81;53.10
58239;BME280;44037;55.638;37.356;2023-08-07T08:26:57;98885.00;;;27.85;53.08
58239;BME280;44037;55.638;37.356;2023-08-07T08:29:24;98896.84;;;27.92;53.25
58239;BME280;44037;55.638;37.356;2023-08-07T08:31:52;98900.25;;;27.94;52.41
58239;BME280;44037;55.638;37.356;2023-08-07T08:34:21;98879.44;;;27.99;52.51
58239;BME280;44037;55.638;37.356;2023-08-07T08:36:48;98880.31;;;28.00;52.58
58239;BME280;44037;55.638;37.356;2023-08-07T08:39:15;98889.13;;;28.00;52.63
58239;BME280;44037;55.638;37.356;2023-08-07T08:41:46;98867.84;;;28.00;52.51
58239;BME280;44037;55.638;37.356;2023-08-07T08:44:13;98864.00;;;28.04;52.39
58239;BME280;44037;55.638;37.356;2023-08-07T08:46:42;98875.19;;;28.10;52.42
58239;BME280;44037;55.638;37.356;2023-08-07T08:49:10;98882.91;;;28.13;52.46
58239;BME280;44037;55.638;37.356;2023-08-07T08:51:39;98875.66;;;28.15;52.49
58239;BME280;44037;55.638;37.356;2023-08-07T08:54:06;98872.78;;;28.18;51.66
58239;BME280;44037;55.638;37.356;2023-08-07T08:56:35;98860.94;;;28.22;51.70
58239;BME280;44037;55.638;37.356;2023-08-07T08:59:03;98880.06;;;28.27;50.95
58239;BME280;44037;55.638;37.356;2023-08-07T09:01:30;98859.25;;;28.32;50.72
58239;BME280;44037;55.638;37.356;2023-08-07T09:03:58;98864.44;;;28.34;51.35
58239;BME280;44037;55.638;37.356;2023-08-07T09:06:27;98862.53;;;28.36;51.05
58239;BME280;44037;55.638;37.356;2023-08-07T09:08:59;98866.88;;;28.37;50.83
58239;BME280;44037;55.638;37.356;2023-08-07T09:11:28;98869.53;;;28.37;50.35
58239;BME280;44037;55.638;37.356;2023-08-07T09:13:56;98876.56;;;28.38;50.49
58239;BME280;44037;55.638;37.356;2023-08-07T09:16:24;98865.56;;;28.43;50.63
58239;BME280;44037;55.638;37.356;2023-08-07T09:18:52;98856.00;;;28.51;50.29
58239;BME280;44037;55.638;37.356;2023-08-07T09:21:21;98865.78;;;28.51;49.85
58239;BME280;44037;55.638;37.356;2023-08-07T09:23:48;98857.81;;;28.51;48.83
58239;BME280;44037;55.638;37.356;2023-08-07T09:26:21;98848.38;;;28.47;49.55
58239;BME280;44037;55.638;37.356;2023-08-07T09:28:51;98856.47;;;28.45;49.26
58239;BME280;44037;55.638;37.356;2023-08-07T09:31:18;98860.81;;;28.35;49.13
58239;BME280;44037;55.638;37.356;2023-08-07T09:33:47;98865.31;;;28.34;49.36
58239;BME280;44037;55.638;37.356;2023-08-07T09:36:14;98849.06;;;28.38;49.19
58239;BME280;44037;55.638;37.356;2023-08-07T09:38:42;98844.38;;;28.41;49.48
58239;BME280;44037;55.638;37.356;2023-08-07T09:41:09;98839.75;;;28.43;49.51
58239;BME280;44037;55.638;37.356;2023-08-07T09:43:38;98846.69;;;28.46;49.11
58239;BME280;44037;55.638;37.356;2023-08-07T09:46:05;98833.22;;;28.47;49.12
58239;BME280;44037;55.638;37.356;2023-08-07T09:48:39;98820.66;;;28.49;48.92
58239;BME280;44037;55.638;37.356;2023-08-07T09:51:06;98835.75;;;28.49;49.07
58239;BME280;44037;55.638;37.356;2023-08-07T09:53:33;98830.81;;;28.56;49.07
58239;BME280;44037;55.638;37.356;2023-08-07T09:56:01;98829.00;;;28.56;48.57
58239;BME280;44037;55.638;37.356;2023-08-07T09:58:28;98821.38;;;28.63;48.40
58239;BME280;44037;55.638;37.356;2023-08-07T10:00:58;98805.03;;;28.67;47.87
58239;BME280;44037;55.638;37.356;2023-08-07T10:03:26;98818.22;;;28.69;47.68
58239;BME280;44037;55.638;37.356;2023-08-07T10:05:54;98814.47;;;28.72;48.12
58239;BME280;44037;55.638;37.356;2023-08-07T10:08:21;98818.59;;;28.76;48.31
58239;BME280;44037;55.638;37.356;2023-08-07T10:10:48;98814.59;;;28.81;48.36
58239;BME280;44037;55.638;37.356;2023-08-07T10:13:15;98807.22;;;28.85;48.61
58239;BME280;44037;55.638;37.356;2023-08-07T10:15:43;98798.00;;;28.89;48.50
58239;BME280;44037;55.638;37.356;2023-08-07T10:18:12;98796.78;;;28.93;48.76
58239;BME280;44037;55.638;37.356;2023-08-07T10:20:40;98805.25;;;28.99;49.37
58239;BME280;44037;55.638;37.356;2023-08-07T10:23:11;98795.56;;;29.09;47.85
58239;BME280;44037;55.638;37.356;2023-08-07T10:25:41;98786.19;;;29.15;47.75
58239;BME280;44037;55.638;37.356;2023-08-07T10:28:13;98787.63;;;29.19;47.54
58239;BME280;44037;55.638;37.356;2023-08-07T10:30:42;98771.38;;;29.22;46.60
58239;BME280;44037;55.638;37.356;2023-08-07T10:33:09;98794.53;;;29.21;46.60
58239;BME280;44037;55.638;37.356;2023-08-07T10:35:44;98780.13;;;29.12;47.11
58239;BME280;44037;55.638;37.356;2023-08-07T10:38:12;98783.78;;;29.11;47.11
58239;BME280;44037;55.638;37.356;2023-08-07T10:41:00;98790.66;;;29.14;47.39
58239;BME280;44037;55.638;37.356;2023-08-07T10:43:28;98766.03;;;29.22;46.54
58239;BME280;44037;55.638;37.356;2023-08-07T10:46:02;98764.09;;;29.24;46.57
58239;BME280;44037;55.638;37.356;2023-08-07T10:48:29;98766.38;;;29.28;46.21
58239;BME280;44037;55.638;37.356;2023-08-07T10:51:03;98770.59;;;29.31;46.39
58239;BME280;44037;55.638;37.356;2023-08-07T10:53:32;98759.84;;;29.33;46.83
58239;BME280;44037;55.638;37.356;2023-08-07T10:56:01;98754.28;;;29.36;47.55
58239;BME280;44037;55.638;37.356;2023-08-07T10:58:30;98755.19;;;29.46;47.04
58239;BME280;44037;55.638;37.356;2023-08-07T11:01:16;98750.31;;;29.51;47.09
58239;BME280;44037;55.638;37.356;2023-08-07T11:03:45;98742.31;;;29.51;47.31
58239;BME280;44037;55.638;37.356;2023-08-07T11:06:14;98748.38;;;29.53;47.76
58239;BME280;44037;55.638;37.356;2023-08-07T11:08:41;98755.25;;;29.56;47.16
58239;BME280;44037;55.638;37.356;2023-08-07T11:11:08;98746.66;;;29.52;47.09
58239;BME280;44037;55.638;37.356;2023-08-07T11:13:35;98740.34;;;29.53;46.81
58239;BME280;44037;55.638;37.356;2023-08-07T11:16:02;98749.22;;;29.54;47.31
58239;BME280;44037;55.638;37.356;2023-08-07T11:18:31;98738.03;;;29.60;47.80
58239;BME280;44037;55.638;37.356;2023-08-07T11:20:58;98740.19;;;29.66;46.82
58239;BME280;44037;55.638;37.356;2023-08-07T11:23:28;98739.31;;;29.66;46.69
58239;BME280;44037;55.638;37.356;2023-08-07T11:25:55;98738.50;;;29.65;47.13
58239;BME280;44037;55.638;37.356;2023-08-07T11:28:23;98724.28;;;29.65;47.21
58239;BME280;44037;55.638;37.356;2023-08-07T11:30:51;98744.06;;;29.62;47.39
58239;BME280;44037;55.638;37.356;2023-08-07T11:33:21;98732.19;;;29.66;47.37
58239;BME280;44037;55.638;37.356;2023-08-07T11:35:49;98738.34;;;29.67;46.50
58239;BME280;44037;55.638;37.356;2023-08-07T11:38:30;98728.66;;;29.66;46.79
58239;BME280;44037;55.638;37.356;2023-08-07T11:40:59;98726.69;;;29.68;46.91
58239;BME280;44037;55.638;37.356;2023-08-07T11:43:30;98721.81;;;29.73;47.13
58239;BME280;44037;55.638;37.356;2023-08-07T11:45:58;98721.13;;;29.71;47.32
58239;BME280;44037;55.638;37.356;2023-08-07T11:48:26;98691.88;;;29.69;47.82
58239;BME280;44037;55.638;37.356;2023-08-07T11:50:54;98713.81;;;29.73;48.07
58239;BME280;44037;55.638;37.356;2023-08-07T11:53:22;98711.59;;;29.78;48.09
58239;BME280;44037;55.638;37.356;2023-08-07T11:55:54;98705.75;;;29.84;48.42
58239;BME280;44037;55.638;37.356;2023-08-07T11:58:24;98707.53;;;29.84;47.79
58239;BME280;44037;55.638;37.356;2023-08-07T12:00:52;98693.78;;;29.88;46.89
58239;BME280;44037;55.638;37.356;2023-08-07T12:03:27;98708.13;;;29.87;46.92
58239;BME280;44037;55.638;37.356;2023-08-07T12:05:56;98690.44;;;29.86;46.94
58239;BME280;44037;55.638;37.356;2023-08-07T12:08:23;98679.47;;;29.89;47.38
58239;BME280;44037;55.638;37.356;2023-08-07T12:10:50;98680.91;;;29.94;47.34
58239;BME280;44037;55.638;37.356;2023-08-07T12:13:24;98687.84;;;29.96;47.05
58239;BME280;44037;55.638;37.356;2023-08-07T12:15:53;98664.25;;;30.01;47.08
58239;BME280;44037;55.638;37.356;2023-08-07T12:18:21;98674.06;;;30.01;47.36
58239;BME280;44037;55.638;37.356;2023-08-07T12:20:50;98675.19;;;29.98;47.00
58239;BME280;44037;55.638;37.356;2023-08-07T12:23:20;98677.28;;;29.95;47.34
58239;BME280;44037;55.638;37.356;2023-08-07T12:25:50;98667.34;;;29.97;47.20
58239;BME280;44037;55.638;37.356;2023-08-07T12:28:18;98673.50;;;29.97;47.14
58239;BME280;44037;55.638;37.356;2023-08-07T12:30:48;98667.34;;;29.97;46.74
58239;BME280;44037;55.638;37.356;2023-08-07T12:33:16;98670.97;;;29.96;47.35
58239;BME280;44037;55.638;37.356;2023-08-07T12:35:44;98663.19;;;29.93;47.00
58239;BME280;44037;55.638;37.356;2023-08-07T12:38:11;98655.19;;;29.93;47.56
58239;BME280;44037;55.638;37.356;2023-08-07T12:40:39;98657.75;;;29.94;47.96
58239;BME280;44037;55.638;37.356;2023-08-07T12:43:07;98653.28;;;29.95;47.66
58239;BME280;44037;55.638;37.356;2023-08-07T12:45:34;98658.34;;;29.98;47.73
58239;BME280;44037;55.638;37.356;2023-08-07T12:48:03;98647.25;;;30.02;47.17
58239;BME280;44037;55.638;37.356;2023-08-07T12:50:31;98646.84;;;30.07;47.37
58239;BME280;44037;55.638;37.356;2023-08-07T12:52:58;98637.16;;;30.06;47.49
58239;BME280;44037;55.638;37.356;2023-08-07T12:55:25;98656.09;;;30.03;47.35